TAF KHRL
KHRL 081730Z 0818/0918 03004KT P6SM OVC011 FM082100 13007KT P6SM BKN029 FM090500 13006KT P6SM BKN017 FM090700 VRB04KT 1SM BR OVC006 FM091600 18013KT P6SM BKN035=
METAR KHRL
KHRL 082052Z 06009KT 10SM BKN019 OVC025 24/20 A2993 RMK AO2 SLP134 T02440200 56029 ?
SPECI KHRL 082020Z 07007KT 10SM BKN020 OVC055 25/19 A2994 RMK AO2 T02500194
KHRL 081952Z 05008KT 10SM SCT055 26/20 A2994 RMK AO2 SLP138 T02560200
SPECI KHRL 081936Z 07009KT 10SM SCT024 BKN055 25/19 A2995 RMK AO2 T02500194
SPECI KHRL 081902Z 04007KT 10SM BKN018 BKN027 OVC046 24/19 A2997 RMK AO2 T02440194
WC KHRL
WS KHRL
WV KHRL